createdAt,value
2018-11-10T00:01:37.740Z,157.75
2018-11-10T00:03:39.734Z,159.40
2018-11-10T00:05:41.745Z,160.63
2018-11-10T00:07:43.727Z,154.27
2018-11-10T00:09:45.733Z,151.90
2018-11-10T00:11:47.720Z,150.68
2018-11-10T00:13:49.724Z,153.65
2018-11-10T00:15:51.712Z,148.02
2018-11-10T00:17:53.692Z,146.50
2018-11-10T00:19:55.697Z,150.53
2018-11-10T00:21:57.762Z,147.68
2018-11-10T00:23:59.774Z,142.68
2018-11-10T00:26:01.758Z,142.53
2018-11-10T00:28:03.762Z,140.95
2018-11-10T00:30:05.763Z,144.28
2018-11-10T00:32:07.732Z,141.82
2018-11-10T00:34:09.735Z,143.17
2018-11-10T00:36:11.712Z,138.68
2018-11-10T00:38:13.965Z,139.28
2018-11-10T00:40:15.972Z,142.20
2018-11-10T00:42:17.957Z,132.43
2018-11-10T00:44:19.952Z,138.30
2018-11-10T00:46:21.958Z,133.15
2018-11-10T00:48:23.927Z,137.15
2018-11-10T00:50:25.936Z,135.05
2018-11-10T00:52:27.923Z,130.65
2018-11-10T00:54:29.929Z,133.27
2018-11-10T00:56:31.914Z,130.70
2018-11-10T00:58:33.891Z,131.22
2018-11-10T01:00:35.897Z,130.40
2018-11-10T01:02:37.875Z,130.43
2018-11-10T01:04:39.878Z,129.15
2018-11-10T01:06:41.884Z,127.50
2018-11-10T01:08:43.882Z,125.58
2018-11-10T01:10:45.873Z,126.80
2018-11-10T01:12:47.878Z,124.53
2018-11-10T01:14:49.913Z,124.67
2018-11-10T01:16:51.881Z,122.78
2018-11-10T01:18:53.889Z,124.70
2018-11-10T01:20:55.834Z,122.07
2018-11-10T01:22:57.822Z,122.62
2018-11-10T01:24:59.846Z,117.75
2018-11-10T01:27:01.843Z,115.75
2018-11-10T01:29:03.832Z,115.95
2018-11-10T01:31:05.855Z,114.03
2018-11-10T01:33:07.845Z,116.95
2018-11-10T01:35:09.837Z,114.57
2018-11-10T01:37:11.893Z,113.88
2018-11-10T01:39:13.879Z,111.75
2018-11-10T01:41:15.859Z,112.47
2018-11-10T01:43:17.859Z,111.10
2018-11-10T01:45:19.858Z,111.85
2018-11-10T01:47:21.889Z,107.05
2018-11-10T01:49:23.870Z,110.92
2018-11-10T01:51:25.853Z,105.90
2018-11-10T01:53:27.863Z,109.50
2018-11-10T01:55:29.875Z,104.05
2018-11-10T01:57:31.851Z,103.30
2018-11-10T01:59:33.843Z,104.70
2018-11-10T02:01:35.840Z,100.87
2018-11-10T02:03:38.257Z,98.42
2018-11-10T02:05:40.213Z,96.45
2018-11-10T02:07:42.200Z,98.75
2018-11-10T02:09:44.184Z,96.67
2018-11-10T02:11:46.180Z,97.85
2018-11-10T02:13:48.207Z,97.37
2018-11-10T02:15:50.155Z,92.80
2018-11-10T02:17:52.165Z,97.00
2018-11-10T02:19:54.144Z,93.85
2018-11-10T02:21:56.132Z,96.40
2018-11-10T02:23:58.150Z,95.47
2018-11-10T02:26:00.166Z,94.00
2018-11-10T02:28:02.169Z,93.10
2018-11-10T02:30:04.161Z,89.47
2018-11-10T02:32:06.200Z,90.32
2018-11-10T02:34:08.191Z,91.35
2018-11-10T02:36:10.265Z,92.20
2018-11-10T02:38:12.246Z,93.15
2018-11-10T02:40:14.246Z,89.52
2018-11-10T02:42:16.233Z,87.67
2018-11-10T02:44:18.217Z,90.28
2018-11-10T02:46:20.210Z,86.72
2018-11-10T02:48:22.181Z,84.75
2018-11-10T02:50:24.238Z,84.55
2018-11-10T02:52:26.218Z,83.42
2018-11-10T02:54:28.219Z,87.92
2018-11-10T02:56:30.207Z,83.75
2018-11-10T02:58:32.193Z,82.45
2018-11-10T03:00:34.243Z,82.95
2018-11-10T03:02:36.226Z,81.05
2018-11-10T03:04:38.243Z,81.08
2018-11-10T03:06:41.249Z,80.07
2018-11-10T03:08:43.217Z,80.47
2018-11-10T03:10:45.229Z,79.72
2018-11-10T03:12:47.213Z,78.62
2018-11-10T03:14:49.194Z,77.50
2018-11-10T03:16:51.192Z,77.27
2018-11-10T03:18:53.211Z,78.65
2018-11-10T03:20:55.186Z,75.55
2018-11-10T03:22:57.194Z,76.05
2018-11-10T03:24:59.190Z,74.60
2018-11-10T03:27:01.175Z,75.50
2018-11-10T03:29:03.195Z,74.35
2018-11-10T03:31:05.219Z,73.35
2018-11-10T03:33:07.209Z,74.00
2018-11-10T03:35:09.214Z,71.42
2018-11-10T03:37:11.213Z,72.08
2018-11-10T03:39:13.221Z,70.28
2018-11-10T03:41:15.202Z,71.25
2018-11-10T03:43:17.189Z,68.05
2018-11-10T03:45:19.191Z,68.20
2018-11-10T03:47:21.254Z,67.60
2018-11-10T03:49:23.190Z,67.55
2018-11-10T03:51:25.207Z,67.10
2018-11-10T03:53:27.203Z,64.60
2018-11-10T03:55:29.206Z,66.47
2018-11-10T03:57:31.204Z,61.93
2018-11-10T03:59:33.193Z,66.07
2018-11-10T04:01:35.204Z,63.38
2018-11-10T04:03:37.172Z,64.37
2018-11-10T04:05:39.167Z,63.30
2018-11-10T04:07:41.185Z,64.90
2018-11-10T04:09:43.161Z,64.25
2018-11-10T04:11:45.155Z,63.58
2018-11-10T04:13:47.138Z,62.00
2018-11-10T04:15:49.111Z,64.07
2018-11-10T04:17:51.113Z,61.50
2018-11-10T04:19:53.085Z,59.25
2018-11-10T04:21:55.091Z,61.08
2018-11-10T04:23:57.085Z,63.17
2018-11-10T04:25:59.078Z,61.75
2018-11-10T04:28:01.075Z,58.68
2018-11-10T04:30:03.065Z,58.17
2018-11-10T04:32:05.064Z,63.45
2018-11-10T04:34:07.071Z,58.83
2018-11-10T04:36:09.072Z,56.20
2018-11-10T04:38:11.081Z,55.95
2018-11-10T04:40:13.094Z,57.30
2018-11-10T04:42:15.094Z,66.47
2018-11-10T04:44:17.092Z,133.70
2018-11-10T04:46:19.085Z,194.10
2018-11-10T04:48:21.099Z,223.90
2018-11-10T04:50:23.114Z,238.05
2018-11-10T04:52:25.098Z,249.42
2018-11-10T04:54:27.104Z,227.80
2018-11-10T04:56:29.090Z,237.37
2018-11-10T04:58:31.096Z,206.23
2018-11-10T05:00:33.080Z,152.97
2018-11-10T05:02:35.060Z,136.23
2018-11-10T05:04:37.078Z,136.53
2018-11-10T05:06:39.138Z,132.97
2018-11-10T05:08:41.142Z,130.75
2018-11-10T05:10:43.120Z,144.85
2018-11-10T05:12:45.172Z,122.63
2018-11-10T05:14:47.174Z,110.37
2018-11-10T05:16:49.164Z,121.02
2018-11-10T05:18:51.162Z,100.50
2018-11-10T05:20:53.148Z,100.47
2018-11-10T05:22:55.156Z,110.90
2018-11-10T05:24:57.142Z,116.75
2018-11-10T05:26:59.156Z,164.40
2018-11-10T05:29:01.157Z,180.20
2018-11-10T05:31:03.265Z,164.50
2018-11-10T05:33:05.425Z,183.87
2018-11-10T05:35:07.493Z,145.95
2018-11-10T05:37:09.484Z,151.68
2018-11-10T05:39:11.562Z,142.00
2018-11-10T05:41:13.566Z,146.25
2018-11-10T05:43:15.556Z,145.25
2018-11-10T05:45:17.552Z,107.03
2018-11-10T05:47:19.565Z,121.60
2018-11-10T05:49:21.542Z,125.72
2018-11-10T05:51:23.571Z,127.78
2018-11-10T05:53:25.619Z,128.80
2018-11-10T05:55:27.624Z,133.52
2018-11-10T05:57:29.685Z,190.35
2018-11-10T05:59:31.674Z,204.63
2018-11-10T06:01:33.672Z,187.68
2018-11-10T06:03:35.669Z,218.42
2018-11-10T06:05:37.653Z,209.40
2018-11-10T06:07:39.674Z,196.80
2018-11-10T06:09:41.747Z,187.03
2018-11-10T06:11:43.694Z,192.75
2018-11-10T06:13:45.718Z,182.40
2018-11-10T06:15:47.692Z,178.23
2018-11-10T06:17:49.706Z,180.30
2018-11-10T06:19:51.708Z,173.07
2018-11-10T06:21:53.780Z,169.72
2018-11-10T06:23:55.764Z,173.17
2018-11-10T06:25:57.816Z,166.03
2018-11-10T06:27:59.754Z,159.40
2018-11-10T06:30:01.739Z,163.77
2018-11-10T06:32:03.782Z,154.15
2018-11-10T06:34:05.834Z,158.15
2018-11-10T06:36:08.039Z,280.02
2018-11-10T06:38:10.060Z,170.62
2018-11-10T06:40:12.458Z,212.27
2018-11-10T06:42:14.453Z,225.25
2018-11-10T06:44:16.436Z,236.15
2018-11-10T06:46:18.463Z,223.40
2018-11-10T06:48:20.466Z,224.10
2018-11-10T06:50:22.435Z,225.32
2018-11-10T06:52:24.438Z,214.27
2018-11-10T06:54:26.494Z,202.40
2018-11-10T06:56:28.511Z,198.62
2018-11-10T06:58:30.522Z,196.70
2018-11-10T07:00:32.510Z,198.00
2018-11-10T07:02:34.534Z,197.53
2018-11-10T07:04:36.520Z,193.28
2018-11-10T07:06:38.511Z,196.30
2018-11-10T07:08:40.529Z,188.55
2018-11-10T07:10:42.528Z,210.63
2018-11-10T07:12:44.515Z,216.42
2018-11-10T07:14:46.495Z,223.72
2018-11-10T07:16:48.492Z,263.82
2018-11-10T07:18:50.479Z,248.05
2018-11-10T07:20:52.493Z,246.95
2018-11-10T07:22:54.490Z,238.70
2018-11-10T07:24:56.587Z,227.53
2018-11-10T07:26:58.792Z,228.77
2018-11-10T07:29:01.730Z,226.82
2018-11-10T07:31:03.709Z,215.72
2018-11-10T07:33:05.706Z,213.87
2018-11-10T07:35:07.687Z,208.17
2018-11-10T07:37:09.709Z,213.45
2018-11-10T07:39:11.682Z,209.37
2018-11-10T07:41:13.683Z,208.10
2018-11-10T07:43:15.706Z,198.62
2018-11-10T07:45:17.680Z,196.22
2018-11-10T07:47:19.672Z,193.43
2018-11-10T07:49:21.733Z,188.80
2018-11-10T07:51:24.208Z,186.73
2018-11-10T07:53:26.126Z,186.75
2018-11-10T07:55:28.117Z,178.65
2018-11-10T07:57:30.112Z,181.00
2018-11-10T07:59:32.108Z,179.20
2018-11-10T08:01:34.086Z,173.30
2018-11-10T08:03:36.074Z,174.38
2018-11-10T08:05:38.057Z,166.45
2018-11-10T08:07:40.059Z,167.15
2018-11-10T08:09:42.052Z,165.07
2018-11-10T08:11:44.089Z,165.88
2018-11-10T08:13:46.318Z,159.60
2018-11-10T08:15:48.291Z,165.12
2018-11-10T08:17:50.276Z,158.55
2018-11-10T08:19:52.284Z,152.65
2018-11-10T08:21:54.288Z,154.50
2018-11-10T08:23:56.304Z,153.07
2018-11-10T08:25:58.275Z,150.40
2018-11-10T08:28:00.295Z,149.75
2018-11-10T08:30:02.333Z,143.17
2018-11-10T08:32:04.332Z,145.80
2018-11-10T08:34:06.340Z,143.25
2018-11-10T08:36:08.315Z,144.00
2018-11-10T08:38:10.315Z,143.02
2018-11-10T08:40:12.287Z,137.90
2018-11-10T08:42:14.327Z,139.47
2018-11-10T08:44:16.318Z,137.12
2018-11-10T08:46:18.337Z,135.88
2018-11-10T08:48:20.352Z,134.05
2018-11-10T08:50:22.329Z,128.27
2018-11-10T08:52:24.462Z,128.57
2018-11-10T08:54:26.459Z,133.63
2018-11-10T08:56:28.460Z,125.53
2018-11-10T08:58:30.447Z,127.05
2018-11-10T09:00:32.496Z,49.25
2018-11-10T09:02:34.491Z,142.40
2018-11-10T09:04:36.485Z,252.43
2018-11-10T09:06:38.509Z,186.10
2018-11-10T09:08:40.487Z,139.43
2018-11-10T09:10:42.487Z,136.92
2018-11-10T09:12:44.511Z,122.60
2018-11-10T09:14:46.489Z,114.90
2018-11-10T09:16:48.505Z,115.92
2018-11-10T09:18:50.494Z,112.32
2018-11-10T09:20:52.489Z,112.35
2018-11-10T09:22:54.505Z,109.63
2018-11-10T09:24:56.600Z,111.60
2018-11-10T09:26:58.597Z,102.75
2018-11-10T09:29:00.593Z,105.20
2018-11-10T09:31:02.630Z,105.03
2018-11-10T09:33:04.883Z,101.60
2018-11-10T09:35:06.874Z,105.78
2018-11-10T09:37:08.863Z,97.90
2018-11-10T09:39:10.862Z,100.15
2018-11-10T09:41:12.857Z,96.17
2018-11-10T09:43:14.850Z,95.60
2018-11-10T09:45:16.850Z,93.22
2018-11-10T09:47:18.836Z,93.85
2018-11-10T09:49:20.869Z,93.92
2018-11-10T09:51:22.889Z,92.82
2018-11-10T09:53:24.867Z,89.87
2018-11-10T09:55:26.869Z,88.78
2018-11-10T09:57:28.869Z,86.10
2018-11-10T09:59:30.876Z,216.65
2018-11-10T10:01:33.015Z,244.10
2018-11-10T10:03:34.884Z,122.30
2018-11-10T10:05:36.923Z,149.12
2018-11-10T10:07:38.918Z,166.47
2018-11-10T10:09:40.881Z,272.95
2018-11-10T10:11:42.862Z,192.15
2018-11-10T10:13:44.864Z,244.85
2018-11-10T10:15:46.897Z,239.48
2018-11-10T10:17:48.915Z,255.18
2018-11-10T10:19:50.882Z,260.30
2018-11-10T10:21:52.864Z,262.93
2018-11-10T10:23:55.107Z,283.00
2018-11-10T10:25:57.119Z,260.35
2018-11-10T10:27:59.097Z,425.42
2018-11-10T10:30:01.116Z,327.93
2018-11-10T10:32:03.110Z,305.15
2018-11-10T10:34:05.227Z,314.17
2018-11-10T10:36:07.202Z,309.15
2018-11-10T10:38:09.701Z,314.90
2018-11-10T10:40:11.685Z,313.20
2018-11-10T10:42:13.675Z,309.40
2018-11-10T10:44:15.683Z,306.98
2018-11-10T10:46:17.675Z,300.15
2018-11-10T10:48:19.708Z,322.73
2018-11-10T10:50:21.713Z,344.07
2018-11-10T10:52:23.694Z,360.77
2018-11-10T10:54:25.717Z,381.45
2018-11-10T10:56:27.781Z,344.07
2018-11-10T10:58:30.093Z,327.48
2018-11-10T11:00:32.150Z,317.32
2018-11-10T11:02:34.127Z,308.35
2018-11-10T11:04:36.106Z,314.02
2018-11-10T11:06:38.120Z,332.18
2018-11-10T11:08:40.150Z,347.52
2018-11-10T11:10:42.150Z,345.10
2018-11-10T11:12:44.159Z,348.93
2018-11-10T11:14:46.156Z,346.27
2018-11-10T11:16:48.171Z,201.00
2018-11-10T11:18:50.148Z,83.87
2018-11-10T11:20:52.157Z,50.83
2018-11-10T11:22:54.164Z,32.08
2018-11-10T11:24:56.154Z,172.22
2018-11-10T11:26:58.158Z,264.08
2018-11-10T11:29:00.231Z,101.45
2018-11-10T11:31:02.240Z,57.95
2018-11-10T11:33:04.209Z,38.80
2018-11-10T11:35:06.188Z,32.07
2018-11-10T11:37:08.237Z,25.07
2018-11-10T11:39:10.328Z,22.27
2018-11-10T11:41:12.612Z,37.95
2018-11-10T11:43:14.594Z,116.22
2018-11-10T11:45:16.597Z,121.92
2018-11-10T11:47:18.560Z,426.95
2018-11-10T11:49:20.571Z,582.17
2018-11-10T11:51:22.574Z,313.57
2018-11-10T11:53:24.569Z,265.77
2018-11-10T11:55:26.591Z,255.27
2018-11-10T11:57:28.599Z,261.40
2018-11-10T11:59:30.600Z,258.10
2018-11-10T12:01:32.605Z,258.17
2018-11-10T12:03:34.616Z,256.02
2018-11-10T12:05:36.589Z,257.30
2018-11-10T12:07:38.585Z,257.00
2018-11-10T12:09:40.586Z,247.07
2018-11-10T12:11:42.564Z,240.70
2018-11-10T12:13:44.543Z,237.72
2018-11-10T12:15:46.546Z,232.07
2018-11-10T12:17:48.524Z,235.23
2018-11-10T12:19:50.536Z,232.22
2018-11-10T12:21:52.585Z,228.73
2018-11-10T12:23:54.561Z,226.70
2018-11-10T12:25:56.575Z,227.57
2018-11-10T12:27:58.554Z,221.80
2018-11-10T12:30:00.548Z,217.10
2018-11-10T12:32:02.593Z,216.60
2018-11-10T12:34:04.538Z,218.07
2018-11-10T12:36:06.545Z,212.12
2018-11-10T12:38:08.557Z,208.80
2018-11-10T12:40:10.539Z,209.50
2018-11-10T12:42:12.548Z,206.63
2018-11-10T12:44:14.541Z,200.35
2018-11-10T12:46:16.582Z,199.10
2018-11-10T12:48:18.574Z,196.07
2018-11-10T12:50:20.584Z,202.50
2018-11-10T12:52:22.634Z,190.90
2018-11-10T12:54:24.572Z,193.37
2018-11-10T12:56:26.556Z,193.95
2018-11-10T12:58:28.540Z,191.85
2018-11-10T13:00:30.553Z,181.37
2018-11-10T13:02:32.839Z,181.07
2018-11-10T13:04:34.822Z,183.25
2018-11-10T13:06:36.836Z,177.93
2018-11-10T13:08:38.816Z,175.93
2018-11-10T13:10:40.843Z,167.45
2018-11-10T13:12:42.818Z,169.40
2018-11-10T13:14:44.816Z,171.53
2018-11-10T13:16:46.800Z,166.97
2018-11-10T13:18:48.805Z,169.00
2018-11-10T13:20:50.825Z,167.95
2018-11-10T13:22:52.781Z,167.80
2018-11-10T13:24:54.781Z,160.37
2018-11-10T13:26:56.790Z,165.30
2018-11-10T13:28:58.846Z,163.60
2018-11-10T13:31:00.999Z,155.63
2018-11-10T13:33:03.132Z,154.60
2018-11-10T13:35:05.112Z,152.80
2018-11-10T13:37:07.083Z,158.00
2018-11-10T13:39:09.130Z,151.10
2018-11-10T13:41:11.081Z,150.65
2018-11-10T13:43:13.145Z,147.82
2018-11-10T13:45:15.073Z,147.20
2018-11-10T13:47:17.063Z,149.40
2018-11-10T13:49:19.279Z,143.55
2018-11-10T13:51:21.425Z,140.40
2018-11-10T13:53:23.972Z,144.37
2018-11-10T13:55:25.955Z,138.88
2018-11-10T13:57:27.947Z,140.85
2018-11-10T13:59:30.013Z,136.22
2018-11-10T14:01:31.952Z,77.60
2018-11-10T14:03:33.965Z,35.33
2018-11-10T14:05:36.076Z,20.48
2018-11-10T14:07:38.242Z,18.73
2018-11-10T14:09:40.503Z,15.28
2018-11-10T14:11:42.504Z,13.07
2018-11-10T14:13:44.485Z,13.83
2018-11-10T14:15:46.491Z,13.75
2018-11-10T14:17:48.492Z,14.03
2018-11-10T14:19:50.472Z,14.95
2018-11-10T14:21:52.471Z,13.73
2018-11-10T14:23:54.494Z,42.37
2018-11-10T14:25:56.478Z,60.93
2018-11-10T14:27:58.815Z,76.37
2018-11-10T14:30:00.815Z,161.23
2018-11-10T14:32:02.809Z,61.73
2018-11-10T14:34:04.817Z,31.93
2018-11-10T14:36:06.803Z,24.50
2018-11-10T14:38:08.784Z,22.33
2018-11-10T14:40:10.779Z,18.47
2018-11-10T14:42:12.793Z,58.23
2018-11-10T14:44:14.940Z,57.75
2018-11-10T14:46:16.780Z,119.28
2018-11-10T14:48:18.833Z,150.70
2018-11-10T14:50:20.806Z,243.22
2018-11-10T14:52:22.860Z,199.23
2018-11-10T14:54:24.821Z,178.23
2018-11-10T14:56:26.809Z,172.47
2018-11-10T14:58:28.849Z,155.78
2018-11-10T15:00:30.817Z,148.25
2018-11-10T15:02:32.795Z,134.18
2018-11-10T15:04:34.846Z,121.17
2018-11-10T15:06:36.839Z,114.30
2018-11-10T15:08:38.854Z,95.32
2018-11-10T15:10:40.863Z,98.80
2018-11-10T15:12:42.841Z,99.77
2018-11-10T15:14:44.835Z,98.25
2018-11-10T15:16:46.829Z,96.85
2018-11-10T15:18:48.839Z,94.90
2018-11-10T15:20:50.854Z,90.72
2018-11-10T15:22:52.908Z,262.70
2018-11-10T15:24:54.906Z,209.25
2018-11-10T15:26:56.916Z,189.43
2018-11-10T15:28:59.026Z,207.72
2018-11-10T15:31:01.214Z,246.97
2018-11-10T15:33:03.200Z,225.25
2018-11-10T15:35:05.179Z,223.75
2018-11-10T15:37:07.181Z,242.30
2018-11-10T15:39:09.242Z,234.52
2018-11-10T15:41:11.227Z,250.93
2018-11-10T15:43:13.299Z,258.00
2018-11-10T15:45:15.276Z,245.35
2018-11-10T15:47:17.332Z,219.53
2018-11-10T15:49:19.306Z,232.72
2018-11-10T15:51:21.316Z,229.50
2018-11-10T15:53:23.408Z,222.35
2018-11-10T15:55:25.394Z,218.00
2018-11-10T15:57:27.427Z,209.07
2018-11-10T15:59:29.456Z,204.65
2018-11-10T16:01:31.474Z,209.05
2018-11-10T16:03:33.477Z,204.20
2018-11-10T16:05:35.483Z,198.97
2018-11-10T16:07:37.482Z,197.62
2018-11-10T16:09:39.515Z,194.07
2018-11-10T16:11:41.551Z,205.77
2018-11-10T16:13:43.553Z,243.37
2018-11-10T16:15:45.556Z,242.30
2018-11-10T16:17:47.557Z,306.07
2018-11-10T16:19:49.565Z,407.58
2018-11-10T16:21:51.558Z,456.23
2018-11-10T16:23:53.633Z,406.55
2018-11-10T16:25:55.627Z,354.60
2018-11-10T16:27:57.620Z,355.70
2018-11-10T16:29:59.617Z,338.40
2018-11-10T16:32:01.613Z,300.57
2018-11-10T16:34:03.620Z,301.27
2018-11-10T16:36:05.634Z,313.48
2018-11-10T16:38:07.638Z,355.10
2018-11-10T16:40:09.692Z,390.90
2018-11-10T16:42:11.715Z,368.23
2018-11-10T16:44:13.731Z,366.17
2018-11-10T16:46:15.735Z,316.63
2018-11-10T16:48:17.738Z,336.50
2018-11-10T16:50:19.748Z,320.63
2018-11-10T16:52:21.721Z,339.30
2018-11-10T16:54:24.043Z,379.40
2018-11-10T16:56:26.037Z,383.93
2018-11-10T16:58:28.155Z,422.55
2018-11-10T17:00:30.118Z,447.93
2018-11-10T17:02:32.158Z,458.92
2018-11-10T17:04:34.158Z,525.45
2018-11-10T17:06:36.135Z,511.70
2018-11-10T17:08:38.229Z,628.08
2018-11-10T17:10:40.167Z,572.80
2018-11-10T17:12:42.196Z,602.00
2018-11-10T17:14:44.183Z,524.45
2018-11-10T17:16:46.162Z,518.35
2018-11-10T17:18:48.232Z,506.02
2018-11-10T17:20:50.223Z,502.35
2018-11-10T17:22:52.187Z,493.10
2018-11-10T17:24:54.198Z,496.40
2018-11-10T17:26:56.169Z,636.67
2018-11-10T17:28:58.190Z,542.42
2018-11-10T17:31:00.189Z,527.52
2018-11-10T17:33:02.201Z,605.70
2018-11-10T17:35:04.252Z,623.30
2018-11-10T17:37:06.245Z,590.00
2018-11-10T17:39:08.250Z,724.08
2018-11-10T17:41:10.240Z,688.03
2018-11-10T17:43:12.205Z,762.62
2018-11-10T17:45:14.203Z,729.35
2018-11-10T17:47:16.218Z,747.00
2018-11-10T17:49:18.226Z,732.55
2018-11-10T17:51:20.272Z,716.75
2018-11-10T17:53:22.279Z,710.40
2018-11-10T17:55:24.265Z,729.25
2018-11-10T17:57:26.268Z,735.95
2018-11-10T17:59:28.408Z,746.77
2018-11-10T18:01:30.577Z,854.55
2018-11-10T18:03:32.532Z,891.27
2018-11-10T18:05:34.516Z,857.13
2018-11-10T18:07:36.511Z,839.58
2018-11-10T18:09:38.521Z,821.20
2018-11-10T18:11:40.544Z,797.20
2018-11-10T18:13:42.529Z,787.30
2018-11-10T18:15:44.538Z,784.00
2018-11-10T18:17:46.577Z,760.78
2018-11-10T18:19:48.730Z,746.12
2018-11-10T18:21:50.758Z,750.75
2018-11-10T18:23:52.748Z,747.67
2018-11-10T18:25:54.776Z,737.62
2018-11-10T18:27:56.779Z,712.62
2018-11-10T18:29:58.762Z,717.27
2018-11-10T18:32:00.773Z,726.00
2018-11-10T18:34:02.777Z,752.33
2018-11-10T18:36:04.771Z,805.45
2018-11-10T18:38:06.816Z,779.08
2018-11-10T18:40:08.919Z,787.58
2018-11-10T18:42:10.826Z,828.45
2018-11-10T18:44:12.807Z,865.75
2018-11-10T18:46:14.834Z,847.35
2018-11-10T18:48:16.854Z,834.07
2018-11-10T18:50:18.868Z,821.12
2018-11-10T18:52:20.933Z,844.95
2018-11-10T18:54:23.129Z,850.35
2018-11-10T18:56:25.158Z,856.08
2018-11-10T18:58:27.167Z,856.25
2018-11-10T19:00:29.198Z,855.63
2018-11-10T19:02:31.206Z,849.20
2018-11-10T19:04:33.217Z,846.83
2018-11-10T19:06:35.199Z,839.75
2018-11-10T19:08:37.207Z,838.57
2018-11-10T19:10:39.224Z,830.08
2018-11-10T19:12:41.281Z,828.63
2018-11-10T19:14:43.306Z,825.68
2018-11-10T19:16:45.341Z,812.52
2018-11-10T19:18:47.371Z,805.35
2018-11-10T19:20:49.670Z,814.08
2018-11-10T19:22:51.727Z,803.22
2018-11-10T19:24:54.087Z,802.45
2018-11-10T19:26:56.070Z,799.50
2018-11-10T19:28:58.118Z,796.17
2018-11-10T19:31:00.113Z,792.35
2018-11-10T19:33:02.108Z,782.02
2018-11-10T19:35:04.117Z,787.20
2018-11-10T19:37:06.103Z,784.22
2018-11-10T19:39:08.137Z,800.38
2018-11-10T19:41:10.154Z,807.77
2018-11-10T19:43:12.176Z,815.10
2018-11-10T19:45:14.190Z,820.05
2018-11-10T19:47:16.202Z,824.95
2018-11-10T19:49:18.222Z,816.87
2018-11-10T19:51:20.462Z,812.85
2018-11-10T19:53:22.274Z,797.08
2018-11-10T19:55:24.265Z,797.63
2018-11-10T19:57:26.274Z,794.90
2018-11-10T19:59:28.270Z,793.23
2018-11-10T20:01:30.260Z,797.63
2018-11-10T20:03:32.438Z,789.52
2018-11-10T20:05:34.443Z,778.60
2018-11-10T20:07:36.493Z,774.98
2018-11-10T20:09:38.741Z,787.90
2018-11-10T20:11:40.734Z,805.33
2018-11-10T20:13:42.759Z,825.55
2018-11-10T20:15:44.736Z,819.82
2018-11-10T20:17:46.732Z,807.32
2018-11-10T20:19:48.742Z,787.20
2018-11-10T20:21:50.724Z,846.12
2018-11-10T20:23:52.762Z,609.87
2018-11-10T20:25:54.750Z,241.33
2018-11-10T20:27:56.724Z,132.07
2018-11-10T20:29:58.769Z,72.53
2018-11-10T20:32:00.774Z,319.55
2018-11-10T20:34:02.773Z,470.32
2018-11-10T20:36:04.767Z,509.35
2018-11-10T20:38:06.745Z,418.97
2018-11-10T20:40:08.780Z,407.92
2018-11-10T20:42:10.768Z,401.70
2018-11-10T20:44:12.782Z,399.07
2018-11-10T20:46:14.763Z,399.00
2018-11-10T20:48:17.453Z,391.30
2018-11-10T20:50:19.469Z,373.75
2018-11-10T20:52:21.464Z,397.17
2018-11-10T20:54:23.458Z,386.82
2018-11-10T20:56:25.471Z,404.23
2018-11-10T20:58:27.442Z,444.45
2018-11-10T21:00:29.471Z,658.98
2018-11-10T21:02:31.455Z,714.48
2018-11-10T21:04:33.467Z,734.05
2018-11-10T21:06:35.494Z,708.95
2018-11-10T21:08:37.470Z,676.10
2018-11-10T21:10:39.479Z,662.08
2018-11-10T21:12:41.502Z,660.30
2018-11-10T21:14:43.459Z,639.05
2018-11-10T21:16:45.493Z,518.02
2018-11-10T21:18:47.499Z,473.58
2018-11-10T21:20:49.504Z,563.25
2018-11-10T21:22:51.493Z,572.60
2018-11-10T21:24:53.505Z,547.70
2018-11-10T21:26:55.505Z,526.17
2018-11-10T21:28:57.543Z,484.50
2018-11-10T21:30:59.511Z,509.73
2018-11-10T21:33:01.531Z,471.53
2018-11-10T21:35:03.557Z,519.40
2018-11-10T21:37:05.549Z,467.65
2018-11-10T21:39:07.585Z,499.00
2018-11-10T21:41:09.551Z,522.87
2018-11-10T21:43:11.565Z,534.33
2018-11-10T21:45:13.551Z,626.17
2018-11-10T21:47:15.544Z,594.60
2018-11-10T21:49:17.612Z,590.35
2018-11-10T21:51:19.575Z,584.30
2018-11-10T21:53:21.570Z,565.35
2018-11-10T21:55:23.661Z,565.23
2018-11-10T21:57:25.618Z,570.73
2018-11-10T21:59:27.614Z,570.60
2018-11-10T22:01:29.632Z,560.40
2018-11-10T22:03:31.627Z,577.95
2018-11-10T22:05:33.674Z,573.10
2018-11-10T22:07:35.697Z,551.90
2018-11-10T22:09:37.776Z,577.25
2018-11-10T22:11:39.737Z,585.35
2018-11-10T22:13:41.717Z,560.90
2018-11-10T22:15:43.793Z,539.78
2018-11-10T22:17:45.824Z,544.17
2018-11-10T22:19:47.805Z,548.58
2018-11-10T22:21:49.800Z,579.10
2018-11-10T22:23:51.785Z,572.73
2018-11-10T22:25:53.788Z,629.50
2018-11-10T22:27:55.752Z,651.90
2018-11-10T22:29:57.765Z,650.53
2018-11-10T22:31:59.749Z,652.28
2018-11-10T22:34:01.748Z,638.40
2018-11-10T22:36:03.776Z,624.98
2018-11-10T22:38:05.780Z,626.22
2018-11-10T22:40:07.756Z,614.92
2018-11-10T22:42:09.769Z,617.80
2018-11-10T22:44:11.771Z,606.73
2018-11-10T22:46:13.803Z,616.02
2018-11-10T22:48:15.790Z,618.75
2018-11-10T22:50:17.755Z,656.30
2018-11-10T22:52:19.772Z,688.20
2018-11-10T22:54:21.838Z,699.00
2018-11-10T22:56:23.832Z,691.50
2018-11-10T22:58:25.878Z,672.87
2018-11-10T23:00:27.864Z,685.70
2018-11-10T23:02:29.828Z,680.40
2018-11-10T23:04:31.853Z,672.23
2018-11-10T23:06:33.844Z,654.20
2018-11-10T23:08:35.833Z,653.75
2018-11-10T23:10:37.834Z,649.90
2018-11-10T23:12:39.844Z,615.38
2018-11-10T23:14:41.819Z,613.67
2018-11-10T23:16:43.804Z,624.77
2018-11-10T23:18:45.809Z,630.00
2018-11-10T23:20:47.822Z,649.73
2018-11-10T23:22:49.856Z,688.25
2018-11-10T23:24:51.825Z,687.10
2018-11-10T23:26:53.808Z,706.10
2018-11-10T23:28:55.815Z,708.10
2018-11-10T23:30:57.839Z,694.58
2018-11-10T23:32:59.837Z,694.05
2018-11-10T23:35:01.819Z,682.65
2018-11-10T23:37:03.816Z,670.90
2018-11-10T23:39:05.794Z,671.58
2018-11-10T23:41:07.809Z,676.60
2018-11-10T23:43:09.780Z,669.13
2018-11-10T23:45:11.797Z,667.42
2018-11-10T23:47:13.806Z,658.98
2018-11-10T23:49:15.803Z,659.08
2018-11-10T23:51:17.822Z,669.25
2018-11-10T23:53:19.821Z,695.20
2018-11-10T23:55:21.809Z,695.52
2018-11-10T23:57:23.839Z,717.30
2018-11-10T23:59:25.853Z,712.10
